createdAt,value
2022-08-26T00:02:12.686Z,68.64
2022-08-26T00:05:15.007Z,68.43
2022-08-26T00:08:17.430Z,68.24
2022-08-26T00:11:26.308Z,66.98
2022-08-26T00:14:31.207Z,67.41
2022-08-26T00:17:33.812Z,66.64
2022-08-26T00:20:36.327Z,66.41
2022-08-26T00:23:38.428Z,66.65
2022-08-26T00:26:41.350Z,67.30
2022-08-26T00:29:43.742Z,66.95
2022-08-26T00:32:47.106Z,67.19
2022-08-26T00:35:50.797Z,67.31
2022-08-26T00:38:53.732Z,67.11
2022-08-26T00:41:55.793Z,66.70
2022-08-26T00:44:57.891Z,66.82
2022-08-26T00:48:03.855Z,67.70
2022-08-26T00:51:17.794Z,67.37
2022-08-26T00:54:23.338Z,67.13
2022-08-26T00:57:25.892Z,66.94
2022-08-26T01:00:31.499Z,66.18
2022-08-26T01:03:34.378Z,66.74
2022-08-26T01:06:36.562Z,67.00
2022-08-26T01:09:39.733Z,66.41
2022-08-26T01:12:46.499Z,65.85
2022-08-26T01:15:51.226Z,65.95
2022-08-26T01:18:55.400Z,65.04
2022-08-26T01:22:10.415Z,65.29
2022-08-26T01:25:14.495Z,65.34
2022-08-26T01:28:21.764Z,65.31
2022-08-26T01:31:27.240Z,65.30
2022-08-26T01:34:37.513Z,65.62
2022-08-26T01:37:40.515Z,65.24
2022-08-26T01:40:43.967Z,65.80
2022-08-26T01:43:47.021Z,65.52
2022-08-26T01:46:50.782Z,64.65
2022-08-26T01:49:54.858Z,64.68
2022-08-26T01:52:58.036Z,65.28
2022-08-26T01:56:00.468Z,65.16
2022-08-26T01:59:05.270Z,64.87
2022-08-26T02:02:07.434Z,64.95
2022-08-26T02:05:11.014Z,64.49
2022-08-26T02:08:14.187Z,63.46
2022-08-26T02:11:24.906Z,63.36
2022-08-26T02:14:34.885Z,62.94
2022-08-26T02:17:46.335Z,62.21
2022-08-26T02:20:51.915Z,63.00
2022-08-26T02:23:56.265Z,62.83
2022-08-26T02:26:58.560Z,62.28
2022-08-26T02:30:23.111Z,62.61
2022-08-26T02:33:27.499Z,62.48
2022-08-26T02:36:29.899Z,62.46
2022-08-26T02:39:32.495Z,61.61
2022-08-26T02:42:34.661Z,60.60
2022-08-26T02:45:37.458Z,61.74
2022-08-26T02:48:39.570Z,62.21
2022-08-26T02:51:43.105Z,62.59
2022-08-26T02:54:45.396Z,62.48
2022-08-26T02:57:47.642Z,62.04
2022-08-26T03:00:53.163Z,62.01
2022-08-26T03:03:56.030Z,62.50
2022-08-26T03:06:58.425Z,62.60
2022-08-26T03:10:00.832Z,62.96
2022-08-26T03:13:02.899Z,63.55
2022-08-26T03:16:07.791Z,63.90
2022-08-26T03:19:10.222Z,64.52
2022-08-26T03:22:12.285Z,65.13
2022-08-26T03:25:16.963Z,66.14
2022-08-26T03:28:19.382Z,66.37
2022-08-26T03:31:21.969Z,66.56
2022-08-26T03:34:27.830Z,67.21
2022-08-26T03:37:29.947Z,67.72
2022-08-26T03:40:33.895Z,68.26
2022-08-26T03:43:36.087Z,67.29
2022-08-26T03:46:38.621Z,67.62
2022-08-26T03:49:41.834Z,67.55
2022-08-26T03:52:44.543Z,68.01
2022-08-26T03:55:46.622Z,65.51
2022-08-26T03:58:48.745Z,64.25
2022-08-26T04:01:53.133Z,63.30
2022-08-26T04:04:55.246Z,62.73
2022-08-26T04:07:57.638Z,63.21
2022-08-26T04:11:01.285Z,63.78
2022-08-26T04:14:06.597Z,63.08
2022-08-26T04:17:09.251Z,62.46
2022-08-26T04:20:13.992Z,62.37
2022-08-26T04:23:18.356Z,61.84
2022-08-26T04:26:22.638Z,61.73
2022-08-26T04:29:26.311Z,61.69
2022-08-26T04:32:28.648Z,62.50
2022-08-26T04:35:31.718Z,62.65
2022-08-26T04:38:34.524Z,61.70
2022-08-26T04:41:37.298Z,61.95
2022-08-26T04:44:39.424Z,62.01
2022-08-26T04:47:41.662Z,61.85
2022-08-26T04:50:43.827Z,62.09
2022-08-26T04:53:47.062Z,62.15
2022-08-26T04:56:50.694Z,61.39
2022-08-26T04:59:53.185Z,61.90
2022-08-26T05:02:55.250Z,61.68
2022-08-26T05:05:57.801Z,63.19
2022-08-26T05:08:59.870Z,63.52
2022-08-26T05:12:01.942Z,62.57
2022-08-26T05:15:06.249Z,64.54
2022-08-26T05:18:08.803Z,65.64
2022-08-26T05:21:22.915Z,65.80
2022-08-26T05:24:24.999Z,65.71
2022-08-26T05:27:27.162Z,67.96
2022-08-26T05:30:31.436Z,66.89
2022-08-26T05:33:33.519Z,64.42
2022-08-26T05:36:36.037Z,64.18
2022-08-26T05:39:41.195Z,65.18
2022-08-26T05:42:43.415Z,64.76
2022-08-26T05:45:50.143Z,63.17
2022-08-26T05:48:52.663Z,64.94
2022-08-26T05:51:54.752Z,64.04
2022-08-26T05:54:57.087Z,64.60
2022-08-26T05:57:59.156Z,65.22
2022-08-26T06:01:15.380Z,64.74
2022-08-26T06:04:17.491Z,62.76
2022-08-26T06:07:42.167Z,63.31
2022-08-26T06:10:55.710Z,64.65
2022-08-26T06:14:03.801Z,64.42
2022-08-26T06:17:06.319Z,61.94
2022-08-26T06:20:11.827Z,61.77
2022-08-26T06:23:33.957Z,60.96
2022-08-26T06:26:36.696Z,60.77
2022-08-26T06:29:38.836Z,60.30
2022-08-26T06:32:40.911Z,58.28
2022-08-26T06:35:43.198Z,57.30
2022-08-26T06:38:47.338Z,57.38
2022-08-26T06:41:49.482Z,56.89
2022-08-26T06:44:52.775Z,58.11
2022-08-26T06:47:55.060Z,57.62
2022-08-26T06:51:28.755Z,57.02
2022-08-26T06:54:31.710Z,55.69
2022-08-26T06:57:37.695Z,55.29
2022-08-26T07:00:41.872Z,55.62
2022-08-26T07:03:50.983Z,55.23
2022-08-26T07:06:53.695Z,55.20
2022-08-26T07:09:56.074Z,55.26
2022-08-26T07:12:59.198Z,54.08
2022-08-26T07:16:04.161Z,54.71
2022-08-26T07:19:11.423Z,54.00
2022-08-26T07:22:13.782Z,54.76
2022-08-26T07:25:16.147Z,59.98
2022-08-26T07:28:18.217Z,58.45
2022-08-26T07:31:22.712Z,57.19
2022-08-26T07:34:25.373Z,57.18
2022-08-26T07:37:28.445Z,56.95
2022-08-26T07:40:37.668Z,57.04
2022-08-26T07:43:39.911Z,56.40
2022-08-26T07:46:44.003Z,56.72
2022-08-26T07:49:46.410Z,56.79
2022-08-26T07:52:54.786Z,55.62
2022-08-26T07:55:58.987Z,55.84
2022-08-26T07:59:01.638Z,54.92
2022-08-26T08:02:04.822Z,55.04
2022-08-26T08:05:07.319Z,55.88
2022-08-26T08:08:21.873Z,54.40
2022-08-26T08:11:31.066Z,54.50
2022-08-26T08:14:34.635Z,53.63
2022-08-26T08:17:36.825Z,52.00
2022-08-26T08:20:39.421Z,53.00
2022-08-26T08:23:46.886Z,53.32
2022-08-26T08:26:50.278Z,51.01
2022-08-26T08:29:56.960Z,51.28
2022-08-26T08:32:59.074Z,50.06
2022-08-26T08:36:02.058Z,52.28
2022-08-26T08:39:04.359Z,49.71
2022-08-26T08:42:29.498Z,50.52
2022-08-26T08:45:42.582Z,48.88
2022-08-26T08:48:48.179Z,50.31
2022-08-26T08:51:58.839Z,49.34
2022-08-26T08:55:02.901Z,52.16
2022-08-26T08:58:11.943Z,47.01
2022-08-26T09:01:39.520Z,47.58
2022-08-26T09:05:20.742Z,46.96
2022-08-26T09:08:28.381Z,49.71
2022-08-26T09:11:30.555Z,49.46
2022-08-26T09:14:32.665Z,46.15
2022-08-26T09:18:00.983Z,46.69
2022-08-26T09:21:12.183Z,45.20
2022-08-26T09:24:14.319Z,47.21
2022-08-26T09:27:46.137Z,44.05
2022-08-26T09:31:12.551Z,44.06
2022-08-26T09:34:19.026Z,43.71
2022-08-26T09:37:40.610Z,45.03
2022-08-26T09:40:44.706Z,43.42
2022-08-26T09:44:19.262Z,43.61
2022-08-26T09:47:34.264Z,41.22
2022-08-26T09:50:53.415Z,42.31
2022-08-26T09:54:00.747Z,42.95
2022-08-26T09:57:26.046Z,41.58
2022-08-26T10:00:41.947Z,41.38
2022-08-26T10:03:45.013Z,41.86
2022-08-26T10:07:09.870Z,42.56
2022-08-26T10:10:30.092Z,43.39
2022-08-26T10:13:43.483Z,41.84
2022-08-26T10:17:03.977Z,41.84
2022-08-26T10:20:42.823Z,42.23
2022-08-26T10:23:56.143Z,41.21
2022-08-26T10:27:28.655Z,40.56
2022-08-26T10:30:40.223Z,37.27
2022-08-26T10:33:44.992Z,38.57
2022-08-26T10:37:14.547Z,39.53
2022-08-26T10:40:27.980Z,39.45
2022-08-26T10:44:07.660Z,38.32
2022-08-26T10:47:15.603Z,39.52
2022-08-26T10:50:18.989Z,38.36
2022-08-26T10:53:51.433Z,36.87
2022-08-26T10:57:02.903Z,36.88
2022-08-26T11:00:34.740Z,35.39
2022-08-26T11:04:38.886Z,37.11
2022-08-26T11:07:46.350Z,34.68
2022-08-26T11:10:58.033Z,34.60
2022-08-26T11:14:10.979Z,35.49
2022-08-26T11:17:13.062Z,35.21
2022-08-26T11:20:33.131Z,33.88
2022-08-26T11:23:45.386Z,34.80
2022-08-26T11:26:55.921Z,33.03
2022-08-26T11:30:13.159Z,32.61
2022-08-26T11:33:45.423Z,35.15
2022-08-26T11:36:47.703Z,36.36
2022-08-26T11:39:55.467Z,35.08
2022-08-26T11:43:06.759Z,34.41
2022-08-26T11:46:11.681Z,34.22
2022-08-26T11:49:14.773Z,34.56
2022-08-26T11:52:22.137Z,32.17
2022-08-26T11:55:24.350Z,31.10
2022-08-26T11:58:27.368Z,33.35
2022-08-26T12:01:31.923Z,35.50
2022-08-26T12:04:34.919Z,34.39
2022-08-26T12:07:37.160Z,32.98
2022-08-26T12:10:44.774Z,30.19
2022-08-26T12:13:57.759Z,29.56
2022-08-26T12:17:13.539Z,29.83
2022-08-26T12:20:48.806Z,33.00
2022-08-26T12:23:55.842Z,31.56
2022-08-26T12:27:17.214Z,29.92
2022-08-26T12:30:24.111Z,31.70
2022-08-26T12:33:28.451Z,35.03
2022-08-26T12:36:39.177Z,33.15
2022-08-26T12:39:43.523Z,31.55
2022-08-26T12:42:45.655Z,30.30
2022-08-26T12:45:58.483Z,26.39
2022-08-26T12:49:04.126Z,28.50
2022-08-26T12:52:08.036Z,28.06
2022-08-26T12:55:23.070Z,29.17
2022-08-26T12:58:35.030Z,28.91
2022-08-26T13:01:44.365Z,28.87
2022-08-26T13:04:46.635Z,27.01
2022-08-26T13:08:10.726Z,25.73
2022-08-26T13:11:20.562Z,26.05
2022-08-26T13:14:24.579Z,25.52
2022-08-26T13:17:28.408Z,28.59
2022-08-26T13:20:30.913Z,29.94
2022-08-26T13:23:32.974Z,29.92
2022-08-26T13:26:35.682Z,30.17
2022-08-26T13:29:37.815Z,31.47
2022-08-26T13:32:39.903Z,33.40
2022-08-26T13:35:42.496Z,30.75
2022-08-26T13:38:44.665Z,30.80
2022-08-26T13:41:50.599Z,30.96
2022-08-26T13:44:57.933Z,32.35
2022-08-26T13:48:00.509Z,32.81
2022-08-26T13:51:02.901Z,32.99
2022-08-26T13:54:10.321Z,33.63
2022-08-26T13:57:12.427Z,33.26
2022-08-26T14:00:15.832Z,35.65
2022-08-26T14:03:18.147Z,34.53
2022-08-26T14:06:20.337Z,33.37
2022-08-26T14:09:22.438Z,33.46
2022-08-26T14:12:24.886Z,34.88
2022-08-26T14:15:27.134Z,35.25
2022-08-26T14:18:43.652Z,32.39
2022-08-26T14:21:48.323Z,33.64
2022-08-26T14:24:50.559Z,33.77
2022-08-26T14:27:55.478Z,33.96
2022-08-26T14:30:58.244Z,35.18
2022-08-26T14:34:03.873Z,35.07
2022-08-26T14:37:08.224Z,35.92
2022-08-26T14:40:15.249Z,36.40
2022-08-26T14:43:17.362Z,35.48
2022-08-26T14:46:19.518Z,35.42
2022-08-26T14:49:22.456Z,36.80
2022-08-26T14:52:24.931Z,36.33
2022-08-26T14:55:27.517Z,36.33
2022-08-26T14:58:34.761Z,36.28
2022-08-26T15:01:37.336Z,35.90
2022-08-26T15:04:40.617Z,37.43
2022-08-26T15:07:42.843Z,36.70
2022-08-26T15:10:44.935Z,37.07
2022-08-26T15:13:47.188Z,36.76
2022-08-26T15:16:55.828Z,36.14
2022-08-26T15:19:58.078Z,36.56
2022-08-26T15:23:06.269Z,35.36
2022-08-26T15:26:10.233Z,36.92
2022-08-26T15:29:12.488Z,37.74
2022-08-26T15:32:14.558Z,37.45
2022-08-26T15:35:16.715Z,38.22
2022-08-26T15:38:18.848Z,38.43
2022-08-26T15:41:20.939Z,37.84
2022-08-26T15:44:23.126Z,37.79
2022-08-26T15:47:25.257Z,38.30
2022-08-26T15:50:27.369Z,39.35
2022-08-26T15:53:31.498Z,37.72
2022-08-26T15:56:35.456Z,39.01
2022-08-26T15:59:37.640Z,37.96
2022-08-26T16:02:39.721Z,37.82
2022-08-26T16:05:43.628Z,39.12
2022-08-26T16:08:46.230Z,38.53
2022-08-26T16:11:48.323Z,39.92
2022-08-26T16:14:53.970Z,40.15
2022-08-26T16:17:59.095Z,40.61
2022-08-26T16:21:12.905Z,41.41
2022-08-26T16:24:16.207Z,41.11
2022-08-26T16:27:18.296Z,41.72
2022-08-26T16:30:25.319Z,41.07
2022-08-26T16:33:29.426Z,40.70
2022-08-26T16:36:32.031Z,41.07
2022-08-26T16:39:34.109Z,41.48
2022-08-26T16:42:42.300Z,41.75
2022-08-26T16:45:44.395Z,41.55
2022-08-26T16:48:46.522Z,40.64
2022-08-26T16:51:48.642Z,40.22
2022-08-26T16:54:50.797Z,40.63
2022-08-26T16:57:52.986Z,39.27
2022-08-26T17:00:55.074Z,38.06
2022-08-26T17:03:57.274Z,39.28
2022-08-26T17:06:59.782Z,37.49
2022-08-26T17:10:02.923Z,39.74
2022-08-26T17:13:05.005Z,40.17
2022-08-26T17:16:09.382Z,41.94
2022-08-26T17:19:11.516Z,41.99
2022-08-26T17:22:13.659Z,43.16
2022-08-26T17:25:23.302Z,43.34
2022-08-26T17:28:25.373Z,43.52
2022-08-26T17:31:27.518Z,38.11
2022-08-26T17:34:29.638Z,40.65
2022-08-26T17:37:31.879Z,36.06
2022-08-26T17:40:34.823Z,32.94
2022-08-26T17:43:37.583Z,31.85
2022-08-26T17:46:39.878Z,32.09
2022-08-26T17:49:41.993Z,32.02
2022-08-26T17:52:44.382Z,35.41
2022-08-26T17:55:50.153Z,37.55
2022-08-26T17:59:02.234Z,39.64
2022-08-26T18:02:06.237Z,40.63
2022-08-26T18:05:11.550Z,42.29
2022-08-26T18:08:13.640Z,42.62
2022-08-26T18:11:18.585Z,44.08
2022-08-26T18:14:21.791Z,44.63
2022-08-26T18:17:23.911Z,44.70
2022-08-26T18:20:26.053Z,45.50
2022-08-26T18:23:28.317Z,45.32
2022-08-26T18:26:36.333Z,45.49
2022-08-26T18:29:45.296Z,45.90
2022-08-26T18:32:49.179Z,46.47
2022-08-26T18:35:51.279Z,46.73
2022-08-26T18:38:54.064Z,47.03
2022-08-26T18:41:56.175Z,46.53
2022-08-26T18:44:58.271Z,46.88
2022-08-26T18:48:01.973Z,46.74
2022-08-26T18:51:04.457Z,47.11
2022-08-26T18:54:07.362Z,46.63
2022-08-26T18:57:09.715Z,46.50
2022-08-26T19:00:12.458Z,46.55
2022-08-26T19:03:18.927Z,45.97
2022-08-26T19:06:22.285Z,45.65
2022-08-26T19:09:26.363Z,46.35
2022-08-26T19:12:29.626Z,45.27
2022-08-26T19:15:41.374Z,45.11
2022-08-26T19:18:43.555Z,45.63
2022-08-26T19:21:45.926Z,46.50
2022-08-26T19:24:48.123Z,46.81
2022-08-26T19:27:50.232Z,45.97
2022-08-26T19:30:53.310Z,46.21
2022-08-26T19:33:56.703Z,45.62
2022-08-26T19:36:58.905Z,46.12
2022-08-26T19:40:01.109Z,45.96
2022-08-26T19:43:03.661Z,46.28
2022-08-26T19:46:11.313Z,46.44
2022-08-26T19:49:13.444Z,46.50
2022-08-26T19:52:15.591Z,46.67
2022-08-26T19:55:18.653Z,46.93
2022-08-26T19:58:21.001Z,46.40
2022-08-26T20:01:24.602Z,46.30
2022-08-26T20:04:26.903Z,46.61
2022-08-26T20:07:30.040Z,46.49
2022-08-26T20:10:34.610Z,46.45
2022-08-26T20:13:36.855Z,46.40
2022-08-26T20:16:38.995Z,46.41
2022-08-26T20:19:59.685Z,46.05
2022-08-26T20:23:03.671Z,46.45
2022-08-26T20:26:05.905Z,46.38
2022-08-26T20:29:08.620Z,46.74
2022-08-26T20:32:11.992Z,46.02
2022-08-26T20:35:14.463Z,45.45
2022-08-26T20:38:20.873Z,45.24
2022-08-26T20:41:25.810Z,45.33
2022-08-26T20:44:28.317Z,45.69
2022-08-26T20:47:30.839Z,46.71
2022-08-26T20:50:33.387Z,47.41
2022-08-26T20:53:35.842Z,48.13
2022-08-26T20:56:38.105Z,48.65
2022-08-26T20:59:40.610Z,50.13
2022-08-26T21:02:42.745Z,50.28
2022-08-26T21:05:45.282Z,51.98
2022-08-26T21:08:48.398Z,53.29
2022-08-26T21:11:50.622Z,54.37
2022-08-26T21:14:53.229Z,52.74
2022-08-26T21:17:55.391Z,54.35
2022-08-26T21:20:57.807Z,52.74
2022-08-26T21:24:00.083Z,51.26
2022-08-26T21:27:02.299Z,51.58
2022-08-26T21:30:05.189Z,51.87
2022-08-26T21:33:07.742Z,53.08
2022-08-26T21:36:10.511Z,55.81
2022-08-26T21:39:12.957Z,55.69
2022-08-26T21:42:15.080Z,56.17
2022-08-26T21:45:17.343Z,53.92
2022-08-26T21:48:19.624Z,55.06
2022-08-26T21:51:23.363Z,55.78
2022-08-26T21:54:25.606Z,57.52
2022-08-26T21:57:29.085Z,58.21
2022-08-26T22:00:31.203Z,60.52
2022-08-26T22:03:39.320Z,60.38
2022-08-26T22:06:53.561Z,61.33
2022-08-26T22:09:56.158Z,61.41
2022-08-26T22:12:58.566Z,62.23
2022-08-26T22:16:00.982Z,62.07
2022-08-26T22:19:03.279Z,61.52
2022-08-26T22:22:05.433Z,61.13
2022-08-26T22:25:08.290Z,61.94
2022-08-26T22:28:10.563Z,62.17
2022-08-26T22:31:13.510Z,61.38
2022-08-26T22:34:17.388Z,61.96
2022-08-26T22:37:19.576Z,59.18
2022-08-26T22:40:21.838Z,59.83
2022-08-26T22:43:24.833Z,59.43
2022-08-26T22:46:27.166Z,60.16
2022-08-26T22:49:29.267Z,60.28
2022-08-26T22:52:31.450Z,60.29
2022-08-26T22:55:33.669Z,61.56
2022-08-26T22:58:36.087Z,61.16
2022-08-26T23:01:40.922Z,61.47
2022-08-26T23:04:43.109Z,61.31
2022-08-26T23:07:45.247Z,61.10
2022-08-26T23:10:47.497Z,59.70
2022-08-26T23:13:49.584Z,59.85
2022-08-26T23:16:51.914Z,60.77
2022-08-26T23:19:55.213Z,61.51
2022-08-26T23:22:57.650Z,61.93
2022-08-26T23:26:03.273Z,61.86
2022-08-26T23:29:09.084Z,61.44
2022-08-26T23:32:11.481Z,60.80
2022-08-26T23:35:14.280Z,58.71
2022-08-26T23:38:16.539Z,60.15
2022-08-26T23:41:18.662Z,59.21
2022-08-26T23:44:21.274Z,58.10
2022-08-26T23:47:23.414Z,58.99
2022-08-26T23:50:47.563Z,59.15
2022-08-26T23:53:49.689Z,58.94
2022-08-26T23:56:51.783Z,57.76
2022-08-26T23:59:53.894Z,57.95
